Edgewater, Colorado
Current Conditions -  °F | °C
As of 4:15 AM on Friday 24 Oct 2014 (Local Time) from KBJC Reporting Station
Clear Clear  
Wind Chill: 68°   Ceiling: Unl
Heat Index: 68°   Visibility: 10mi
Dew Point: 21°   Wind: 3mph
Humidity: 17%   Direction: 150°SSE
Pressure: 30.15"   Gusts: NA
Location:  39.7434°N, 105.062°W
Report Text: KBJC 241015Z AUTO 15003KT 10SM CLR 20/M06 A3015 RMK AO2
Loading
Personal Weather Stations






























Interactive Weather Map
Tropical Storm Tracking
New forecast layout! Learn more

10-Day Weather Forecast

Advertisements
Track Severe Weather on mobile